Time;durP1;ratioP1;P1;durP2;ratioP2;P2;SDS_P1;SDS_P2;PMS_P1;PMS_P2;Temp;Humidity;BMP_temperature;BMP_pressure;BME280_temperature;BME280_humidity;BME280_pressure;Samples;Min_cycle;Max_cycle;Signal;HPM_P1;HPM_P2
2021/12/13 00:02:34;;;;;;;106.93;48.03;;;-3.30;92.90;-3.90;99594.00;;;;5030499;27;83149;-57
2021/12/13 00:05:15;;;;;;;117.45;48.75;;;-3.30;93.10;-3.90;99601.00;;;;5022079;28;83977;-57
2021/12/13 00:07:53;;;;;;;138.67;53.13;;;-3.30;93.10;-3.90;99595.00;;;;5023003;28;83042;-56
2021/12/13 00:10:22;;;;;;;126.95;52.35;;;-3.30;93.00;-3.90;99600.00;;;;5021231;28;83436;-56
2021/12/13 00:13:06;;;;;;;119.00;51.90;;;-3.30;93.00;-3.80;99592.00;;;;5022575;28;83403;-58
2021/12/13 00:15:42;;;;;;;130.27;52.40;;;-3.30;93.00;-3.80;99584.00;;;;5025655;28;83601;-54
2021/12/13 00:18:19;;;;;;;147.02;55.92;;;-3.30;93.10;-3.80;99593.00;;;;5008175;28;83845;-55
2021/12/13 00:20:54;;;;;;;128.50;52.22;;;-3.30;92.80;-3.90;99598.00;;;;5002281;28;82574;-57
2021/12/13 00:23:31;;;;;;;129.82;52.58;;;-3.30;93.30;-3.80;99602.00;;;;5014165;28;83456;-56
2021/12/13 00:26:03;;;;;;;123.75;50.95;;;-3.30;93.00;-3.80;99601.00;;;;5022739;28;82999;-55
2021/12/13 00:28:35;;;;;;;;;;;-3.30;92.90;-3.70;99602.00;;;;5021634;28;83251;-55
2021/12/13 00:31:29;;;;;;;89.28;43.40;;;-3.20;93.00;-3.80;99601.00;;;;5023082;28;84298;-56
2021/12/13 00:34:31;;;;;;;87.95;41.72;;;-3.20;93.00;-3.80;99615.00;;;;5022358;28;83014;-55
2021/12/13 00:37:10;;;;;;;84.57;41.15;;;-3.20;92.90;-3.80;99602.00;;;;5020739;28;83168;-54
2021/12/13 00:39:57;;;;;;;81.28;40.03;;;-3.20;92.90;-3.80;99604.00;;;;5022942;28;83241;-57
2021/12/13 00:42:34;;;;;;;87.60;43.33;;;-3.30;92.50;-3.80;99612.00;;;;5022525;28;83420;-55
2021/12/13 00:45:06;;;;;;;80.85;41.33;;;-3.30;92.50;-3.80;99607.00;;;;5021790;28;83237;-51
2021/12/13 00:47:37;;;;;;;89.20;43.70;;;-3.30;92.80;-3.80;99605.00;;;;5022521;28;83117;-57
2021/12/13 00:50:12;;;;;;;92.00;43.53;;;-3.30;92.80;-3.80;99599.00;;;;5022329;28;83014;-56
2021/12/13 00:52:41;;;;;;;89.22;43.92;;;-3.30;92.50;-3.90;99585.00;;;;5022480;28;82607;-55
2021/12/13 00:55:20;;;;;;;76.45;39.15;;;-3.30;92.50;-3.80;99585.00;;;;5021958;28;83310;-57
2021/12/13 00:57:51;;;;;;;83.53;42.72;;;-3.30;92.80;-3.80;99591.00;;;;5001352;28;83155;-56
2021/12/13 01:00:40;;;;;;;101.50;45.70;;;-3.30;92.80;-3.80;99598.00;;;;5018320;28;82668;-55
2021/12/13 01:03:22;;;;;;;94.35;43.78;;;-3.30;92.60;-3.80;99595.00;;;;5001985;28;82701;-56
2021/12/13 01:06:34;;;;;;;95.75;44.40;;;-3.30;92.90;-3.80;99602.00;;;;5001501;28;83401;-54
2021/12/13 01:09:56;;;;;;;97.57;43.72;;;-3.30;92.70;-3.80;99600.00;;;;5012161;28;83381;-55
2021/12/13 01:12:24;;;;;;;86.15;43.17;;;-3.30;92.80;-3.80;99603.00;;;;5017591;28;82833;-56
2021/12/13 01:14:57;;;;;;;87.57;43.63;;;-3.30;92.80;-3.70;99591.00;;;;5037356;28;82627;-56
2021/12/13 01:20:54;;;;;;;92.75;45.17;;;-3.20;92.80;-3.80;99578.00;;;;5021098;28;82842;-55
2021/12/13 01:23:38;;;;;;;85.13;42.63;;;-3.20;92.80;-3.70;99582.00;;;;5019946;28;83498;-56
2021/12/13 01:26:27;;;;;;;78.47;40.92;;;-3.20;92.90;-3.70;99581.00;;;;5021589;28;83076;-56
2021/12/13 01:29:04;;;;;;;78.80;40.47;;;-3.20;92.80;-3.70;99577.00;;;;5021195;28;83465;-54
2021/12/13 01:31:40;;;;;;;75.15;39.83;;;-3.20;92.70;-3.70;99583.00;;;;5021476;28;82973;-54
2021/12/13 01:34:09;;;;;;;79.72;39.42;;;-3.20;92.70;-3.70;99577.00;;;;5021701;28;82747;-56
2021/12/13 01:36:49;;;;;;;67.50;36.38;;;-3.20;92.50;-3.70;99586.00;;;;5020192;28;82914;-54
2021/12/13 01:39:25;;;;;;;74.53;39.10;;;-3.20;92.50;-3.80;99586.00;;;;5019863;28;83368;-55
2021/12/13 01:42:03;;;;;;;75.03;36.72;;;-3.20;92.50;-3.70;99594.00;;;;5020121;28;83046;-56
2021/12/13 01:44:40;;;;;;;71.95;36.60;;;-3.20;92.70;-3.70;99589.00;;;;5020878;28;82536;-57
2021/12/13 01:47:15;;;;;;;72.07;35.83;;;-3.20;92.60;-3.80;99579.00;;;;5021237;28;83593;-57
2021/12/13 01:49:58;;;;;;;61.72;32.55;;;-3.20;92.70;-3.70;99582.00;;;;5021720;28;83357;-54
2021/12/13 01:52:33;;;;;;;75.88;35.80;;;-3.20;92.60;-3.70;99591.00;;;;5001550;28;83980;-57
2021/12/13 01:55:11;;;;;;;66.03;33.10;;;-3.20;92.50;-3.80;99574.00;;;;5021443;28;83021;-56
2021/12/13 01:57:53;;;;;;;55.72;30.45;;;-3.20;92.50;-3.70;99592.00;;;;5001362;28;83262;-55
2021/12/13 02:03:42;;;;;;;63.03;32.28;;;-3.30;92.50;-3.70;99573.00;;;;5021428;28;82857;-55
2021/12/13 02:06:08;;;;;;;55.85;30.83;;;-3.20;92.50;-3.70;99579.00;;;;5021304;28;82848;-54
2021/12/13 02:08:35;;;;;;;58.00;31.90;;;-3.20;92.50;-3.80;99570.00;;;;5020670;28;83942;-55
2021/12/13 02:11:03;;;;;;;53.10;30.27;;;-3.30;92.50;-3.80;99594.00;;;;5020755;28;82699;-54
2021/12/13 02:13:52;;;;;;;58.97;31.48;;;-3.30;92.50;-3.80;99577.00;;;;5020968;28;83079;-55
2021/12/13 02:19:08;;;;;;;59.70;30.02;;;-3.20;92.80;-3.80;99562.00;;;;5000052;28;83718;-55
2021/12/13 02:21:36;;;;;;;51.67;29.65;;;-3.20;92.50;-3.80;99561.00;;;;5000050;28;83140;-54
2021/12/13 02:24:11;;;;;;;67.18;32.72;;;-3.20;92.50;-3.80;99551.00;;;;5017684;28;83004;-54
2021/12/13 02:26:43;;;;;;;55.90;31.27;;;-3.20;92.50;-3.80;99550.00;;;;5021027;28;82851;-56
2021/12/13 02:29:16;;;;;;;;;;;-3.20;92.50;-3.70;99555.00;;;;5019878;28;83054;-55
2021/12/13 02:31:44;;;;;;;50.83;30.10;;;-3.20;92.50;-3.80;99542.00;;;;5023563;28;81858;-55
2021/12/13 02:34:16;;;;;;;57.22;30.27;;;-3.20;92.50;-3.80;99533.00;;;;5024290;28;82761;-57
2021/12/13 02:36:46;;;;;;;;;;;-3.30;92.80;-3.70;99534.00;;;;5023794;28;82869;-56
2021/12/13 02:39:25;;;;;;;61.00;31.85;;;-3.20;92.50;-3.80;99534.00;;;;5025863;28;82882;-55
2021/12/13 02:41:52;;;;;;;65.57;32.80;;;-3.20;92.50;-3.80;99541.00;;;;5023166;28;83897;-56
2021/12/13 02:44:44;;;;;;;67.55;33.58;;;-3.20;92.50;-3.80;99538.00;;;;5024029;28;82992;-57
2021/12/13 02:47:26;;;;;;;62.40;31.85;;;-3.20;92.50;-3.80;99535.00;;;;5023052;28;83025;-54
2021/12/13 02:49:54;;;;;;;63.88;32.85;;;-3.30;92.50;-3.80;99529.00;;;;5024009;28;82644;-53
2021/12/13 02:52:22;;;;;;;64.13;32.92;;;-3.20;92.50;-3.80;99546.00;;;;5022096;28;83366;-54
2021/12/13 02:54:55;;;;;;;81.72;36.63;;;-3.20;92.50;-3.70;99544.00;;;;5023901;28;82958;-54
2021/12/13 02:57:33;;;;;;;73.32;36.55;;;-3.20;92.50;-3.70;99534.00;;;;5023936;28;82672;-54
2021/12/13 03:00:29;;;;;;;86.43;38.20;;;-3.20;92.50;-3.80;99542.00;;;;5023111;28;82981;-54
2021/12/13 03:02:58;;;;;;;73.25;35.15;;;-3.20;92.50;-3.80;99545.00;;;;5024032;28;84184;-56
2021/12/13 03:05:35;;;;;;;76.15;37.13;;;-3.20;92.50;-3.70;99533.00;;;;5023388;28;82978;-54
2021/12/13 03:08:16;;;;;;;93.72;38.33;;;-3.20;92.60;-3.70;99535.00;;;;5023826;28;82588;-56
2021/12/13 03:10:49;;;;;;;76.90;35.13;;;-3.20;92.50;-3.70;99539.00;;;;5022989;28;83154;-56
2021/12/13 03:13:18;;;;;;;72.13;34.72;;;-3.20;92.70;-3.70;99534.00;;;;5023865;28;83465;-57
2021/12/13 03:15:53;;;;;;;95.15;39.38;;;-3.20;92.60;-3.70;99521.00;;;;5027546;28;83003;-57
2021/12/13 03:18:28;;;;;;;87.40;38.70;;;-3.20;92.60;-3.70;99516.00;;;;5028530;27;82599;-51
2021/12/13 03:21:46;;;;;;;71.07;36.25;;;-3.20;93.00;-3.70;99522.00;;;;5022117;28;85023;-53
2021/12/13 03:24:33;;;;;;;83.07;38.13;;;-3.20;92.70;-3.70;99510.00;;;;5023432;28;83205;-55
2021/12/13 03:27:21;;;;;;;78.32;37.25;;;-3.20;92.70;-3.70;99499.00;;;;5022755;28;82887;-54
2021/12/13 03:30:05;;;;;;;75.53;37.92;;;-3.10;92.70;-3.70;99504.00;;;;5023401;28;82978;-56
2021/12/13 03:33:00;;;;;;;97.88;39.85;;;-3.10;92.70;-3.70;99514.00;;;;5023352;28;83067;-51
2021/12/13 03:35:44;;;;;;;80.65;38.08;;;-3.10;92.60;-3.70;99511.00;;;;5022075;28;83283;-53
2021/12/13 03:38:26;;;;;;;143.50;45.17;;;-3.20;92.50;-3.70;99511.00;;;;5022349;28;83191;-55
2021/12/13 03:40:57;;;;;;;95.28;42.28;;;-3.20;92.50;-3.70;99515.00;;;;5023394;28;82654;-57
2021/12/13 03:43:42;;;;;;;73.38;35.30;;;-3.20;92.50;-3.70;99523.00;;;;5022410;28;83128;-58
2021/12/13 03:46:13;;;;;;;117.85;42.85;;;-3.10;92.70;-3.70;99524.00;;;;5022808;28;83188;-58
2021/12/13 03:48:41;;;;;;;;;;;-3.20;92.50;-3.70;99524.00;;;;5022678;28;83227;-59
2021/12/13 03:51:15;;;;;;;125.30;45.78;;;-3.20;92.70;-3.70;99514.00;;;;5024165;28;82449;-58
2021/12/13 03:53:48;;;;;;;140.10;45.00;;;-3.10;92.80;-3.70;99514.00;;;;5022777;28;82666;-58
2021/12/13 03:56:20;;;;;;;79.15;38.90;;;-3.20;92.50;-3.70;99500.00;;;;5021228;28;84477;-58
2021/12/13 03:58:53;;;;;;;90.25;38.80;;;-3.10;92.80;-3.70;99499.00;;;;5022453;28;83026;-58
2021/12/13 04:01:41;;;;;;;107.68;44.13;;;-3.20;92.70;-3.60;99505.00;;;;5021235;28;82889;-57
2021/12/13 04:04:18;;;;;;;90.75;38.67;;;-3.20;92.60;-3.70;99496.00;;;;5021622;28;83596;-59
2021/12/13 04:06:54;;;;;;;82.50;38.25;;;-3.10;92.80;-3.60;99502.00;;;;5020615;28;83410;-61
2021/12/13 04:09:26;;;;;;;72.68;37.83;;;-3.10;92.90;-3.60;99501.00;;;;5020314;28;85373;-59
2021/12/13 04:11:57;;;;;;;116.38;42.70;;;-3.10;92.90;-3.60;99499.00;;;;5021067;28;83344;-59
2021/12/13 04:14:31;;;;;;;;;;;-3.10;92.70;-3.60;99490.00;;;;5021722;28;84833;-63
2021/12/13 04:17:56;;;;;;;130.40;44.75;;;-3.10;92.50;-3.60;99504.00;;;;5033956;28;82268;-63
2021/12/13 04:20:33;;;;;;;82.45;39.10;;;-3.10;92.50;-3.60;99490.00;;;;5004326;28;82986;-56
2021/12/13 04:23:07;;;;;;;116.78;45.78;;;-3.10;92.80;-3.60;99492.00;;;;5021825;28;82915;-58
2021/12/13 04:25:40;;;;;;;80.47;38.40;;;-3.10;92.80;-3.60;99476.00;;;;5021694;28;83170;-54
2021/12/13 04:28:15;;;;;;;87.75;40.08;;;-3.10;92.90;-3.60;99484.00;;;;5021249;28;83157;-55
2021/12/13 04:30:50;;;;;;;85.80;40.22;;;-3.00;92.90;-3.50;99491.00;;;;5021333;28;83207;-61
2021/12/13 04:33:30;;;;;;;96.65;40.65;;;-3.00;92.90;-3.60;99487.00;;;;5022273;28;82575;-60
2021/12/13 04:36:13;;;;;;;92.05;39.47;;;-3.00;92.80;-3.50;99498.00;;;;5021749;28;82809;-59
2021/12/13 04:38:53;;;;;;;122.72;45.60;;;-3.10;92.60;-3.50;99500.00;;;;5022039;28;83395;-58
2021/12/13 04:41:27;;;;;;;90.00;41.65;;;-3.00;92.70;-3.50;99493.00;;;;5020083;28;83301;-61
2021/12/13 04:44:02;;;;;;;105.40;43.05;;;-3.00;92.80;-3.60;99489.00;;;;5020600;28;84346;-60
2021/12/13 04:46:32;;;;;;;96.88;41.88;;;-3.00;92.80;-3.60;99480.00;;;;5019517;28;83481;-59
2021/12/13 04:49:09;;;;;;;124.55;45.83;;;-3.00;92.80;-3.50;99477.00;;;;5020975;28;84131;-59
2021/12/13 04:51:46;;;;;;;135.90;48.40;;;-3.00;92.90;-3.50;99482.00;;;;5020091;28;84047;-60
2021/12/13 04:54:15;;;;;;;97.72;42.60;;;-3.00;92.60;-3.50;99486.00;;;;5019884;28;82557;-59
2021/12/13 04:56:43;;;;;;;116.22;46.08;;;-3.00;93.00;-3.50;99479.00;;;;5032939;28;83577;-60
2021/12/13 04:59:13;;;;;;;98.53;44.30;;;-3.00;92.90;-3.50;99477.00;;;;5041194;28;83567;-59
2021/12/13 05:01:44;;;;;;;101.13;42.88;;;-3.00;92.70;-3.50;99483.00;;;;5040618;28;86109;-59
2021/12/13 05:04:11;;;;;;;134.35;47.03;;;-3.00;92.80;-3.50;99476.00;;;;5041462;27;82631;-58
2021/12/13 05:06:41;;;;;;;105.65;43.30;;;-3.00;92.90;-3.50;99474.00;;;;5041100;27;82988;-58
2021/12/13 05:09:14;;;;;;;119.93;46.10;;;-2.90;92.90;-3.50;99479.00;;;;5028906;27;84511;-63
2021/12/13 05:12:04;;;;;;;107.80;43.88;;;-2.90;93.00;-3.40;99471.00;;;;5032492;28;83534;-62
2021/12/13 05:14:37;;;;;;;112.55;43.97;;;-3.00;92.80;-3.40;99472.00;;;;5041057;27;82653;-63
2021/12/13 05:17:23;;;;;;;113.57;45.42;;;-2.90;92.80;-3.40;99478.00;;;;5025792;28;82950;-60
2021/12/13 05:19:59;;;;;;;105.78;43.53;;;-2.90;92.80;-3.40;99465.00;;;;5021355;28;83759;-59
2021/12/13 05:22:25;;;;;;;225.90;56.90;;;-2.90;92.90;-3.40;99467.00;;;;5018840;28;83739;-59
2021/12/13 05:25:04;;;;;;;130.57;46.22;;;-2.90;92.60;-3.50;99466.00;;;;5020673;28;82582;-61
2021/12/13 05:27:38;;;;;;;95.63;43.65;;;-2.90;92.60;-3.50;99476.00;;;;5020373;28;82994;-59
2021/12/13 05:30:20;;;;;;;198.23;55.78;;;-3.00;92.80;-3.40;99459.00;;;;5020638;28;83525;-59
2021/12/13 05:32:59;;;;;;;114.38;47.70;;;-2.90;92.80;-3.40;99478.00;;;;5020512;28;83091;-60
2021/12/13 05:35:45;;;;;;;107.30;42.88;;;-2.90;92.90;-3.40;99490.00;;;;5020808;28;83030;-59
2021/12/13 05:38:32;;;;;;;145.23;49.90;;;-2.90;92.80;-3.40;99479.00;;;;5020716;28;83060;-60
2021/12/13 05:41:04;;;;;;;193.77;54.72;;;-2.90;92.80;-3.40;99477.00;;;;5021321;28;83808;-61
2021/12/13 05:43:43;;;;;;;235.95;60.47;;;-2.90;92.60;-3.40;99483.00;;;;5020390;28;84138;-59
2021/12/13 05:46:45;;;;;;;199.52;57.05;;;-2.90;92.60;-3.50;99481.00;;;;5019176;28;83225;-59
2021/12/13 05:49:41;;;;;;;130.68;48.42;;;-2.90;92.60;-3.50;99492.00;;;;5019870;28;83708;-59
2021/12/13 05:52:17;;;;;;;114.10;47.67;;;-3.00;92.60;-3.50;99493.00;;;;5020418;28;84133;-59
2021/12/13 05:54:56;;;;;;;111.82;45.45;;;-2.90;93.00;-3.40;99481.00;;;;5019592;28;82883;-59
2021/12/13 05:57:34;;;;;;;154.80;49.65;;;-2.90;93.00;-3.40;99486.00;;;;5038667;28;82671;-55
2021/12/13 06:00:29;;;;;;;131.00;48.58;;;-2.90;92.90;-3.40;99487.00;;;;5040318;28;83286;-59
2021/12/13 06:03:17;;;;;;;142.15;50.30;;;-2.90;92.90;-3.40;99493.00;;;;5039383;28;82715;-54
2021/12/13 06:05:52;;;;;;;120.68;46.75;;;-2.90;92.90;-3.40;99481.00;;;;5039560;27;83891;-56
2021/12/13 06:08:34;;;;;;;138.25;51.47;;;-2.90;92.90;-3.40;99481.00;;;;5040544;28;83125;-58
2021/12/13 06:11:07;;;;;;;227.73;59.38;;;-2.90;93.20;-3.40;99483.00;;;;5039694;28;82625;-58
2021/12/13 06:13:57;;;;;;;141.15;51.15;;;-2.80;92.50;-3.40;99479.00;;;;5039100;28;83947;-58
2021/12/13 06:16:23;;;;;;;170.73;55.05;;;-2.90;92.70;-3.40;99470.00;;;;5030171;28;83252;-57
2021/12/13 06:19:04;;;;;;;213.18;58.03;;;-2.90;92.70;-3.40;99478.00;;;;5018975;28;82848;-56
2021/12/13 06:22:14;;;;;;;200.88;55.80;;;-2.90;92.80;-3.40;99471.00;;;;5032915;28;83146;-57
2021/12/13 06:24:57;;;;;;;123.22;48.58;;;-2.90;92.90;-3.50;99468.00;;;;5031283;28;83320;-57
2021/12/13 06:27:29;;;;;;;187.10;54.95;;;-2.90;92.90;-3.40;99481.00;;;;5022433;28;85406;-57
2021/12/13 06:30:31;;;;;;;128.27;50.85;;;-2.90;93.00;-3.40;99480.00;;;;5025906;27;82897;-56
2021/12/13 06:33:08;;;;;;;168.32;54.33;;;-2.80;92.90;-3.40;99472.00;;;;5019708;28;82645;-58
2021/12/13 06:35:46;;;;;;;134.43;50.00;;;-2.90;92.80;-3.40;99478.00;;;;5011881;28;84636;-55
2021/12/13 06:38:50;;;;;;;137.35;51.05;;;-2.80;93.00;-3.40;99471.00;;;;5000073;28;83135;-55
2021/12/13 06:41:37;;;;;;;165.50;55.30;;;-2.80;93.10;-3.30;99459.00;;;;4999869;28;82608;-55
2021/12/13 06:44:13;;;;;;;123.00;49.35;;;-2.90;92.70;-3.40;99456.00;;;;5000053;28;84537;-56
2021/12/13 06:47:03;;;;;;;148.48;52.80;;;-2.80;92.80;-3.30;99469.00;;;;5000171;28;83300;-57
2021/12/13 06:49:43;;;;;;;162.38;55.10;;;-2.80;92.80;-3.40;99471.00;;;;5000320;28;83679;-56
2021/12/13 06:52:13;;;;;;;143.02;53.65;;;-2.90;92.60;-3.30;99469.00;;;;4998679;28;82745;-57
2021/12/13 06:54:47;;;;;;;151.50;51.95;;;-2.80;92.70;-3.30;99472.00;;;;4999723;28;82743;-58
2021/12/13 06:57:20;;;;;;;171.82;57.28;;;-2.90;92.70;-3.40;99467.00;;;;5033207;28;83479;-58
2021/12/13 07:00:11;;;;;;;164.13;54.28;;;-2.90;92.60;-3.30;99468.00;;;;5038968;27;83055;-53
2021/12/13 07:02:48;;;;;;;185.88;54.75;;;-2.80;92.70;-3.30;99480.00;;;;5016763;28;83072;-55
2021/12/13 07:05:27;;;;;;;161.35;55.53;;;-2.80;92.70;-3.30;99469.00;;;;5019820;28;82923;-56
2021/12/13 07:08:06;;;;;;;182.80;58.55;;;-2.80;92.70;-3.30;99459.00;;;;5009914;28;85208;-58
2021/12/13 07:10:44;;;;;;;152.07;54.38;;;-2.80;92.70;-3.30;99460.00;;;;5011484;28;83922;-58
2021/12/13 07:13:20;;;;;;;132.70;52.75;;;-2.80;92.70;-3.30;99481.00;;;;5019323;28;83361;-56
2021/12/13 07:16:02;;;;;;;129.63;51.15;;;-2.80;92.70;-3.20;99476.00;;;;5023992;28;82851;-56
2021/12/13 07:18:49;;;;;;;132.90;52.78;;;-2.70;92.70;-3.20;99478.00;;;;5025568;27;83437;-57
2021/12/13 07:21:22;;;;;;;136.68;52.05;;;-2.70;92.70;-3.20;99479.00;;;;5022526;28;83142;-57
2021/12/13 07:24:07;;;;;;;122.90;52.03;;;-2.70;92.70;-3.10;99489.00;;;;5022901;28;84056;-54
2021/12/13 07:26:53;;;;;;;145.90;53.35;;;-2.70;92.70;-3.10;99485.00;;;;5002642;28;82642;-55
2021/12/13 07:29:44;;;;;;;154.50;55.63;;;-2.70;92.70;-3.20;99492.00;;;;5014591;28;83759;-56
2021/12/13 07:32:19;;;;;;;109.55;49.85;;;-2.70;92.50;-3.20;99495.00;;;;5022009;28;83338;-57
2021/12/13 07:35:20;;;;;;;141.00;56.08;;;-2.70;92.70;-3.20;99506.00;;;;5022277;28;82948;-53
2021/12/13 07:37:52;;;;;;;133.48;55.35;;;-2.70;92.70;-3.10;99506.00;;;;5022598;28;83482;-53
2021/12/13 07:40:37;;;;;;;121.07;53.05;;;-2.70;92.60;-3.10;99500.00;;;;5022360;28;82570;-53
2021/12/13 07:43:15;;;;;;;143.15;56.25;;;-2.60;92.70;-3.10;99498.00;;;;5022563;28;85192;-57
2021/12/13 07:45:49;;;;;;;132.15;56.08;;;-2.60;92.40;-3.20;99496.00;;;;5004763;28;84418;-55
2021/12/13 07:48:25;;;;;;;128.40;56.58;;;-2.70;92.30;-3.10;99505.00;;;;5022353;28;82923;-58
2021/12/13 07:51:28;;;;;;;126.13;53.78;;;-2.70;92.60;-3.10;99495.00;;;;5022880;28;83419;-58
2021/12/13 07:54:13;;;;;;;120.00;52.63;;;-2.60;92.50;-3.10;99502.00;;;;5022273;28;83875;-56
2021/12/13 07:56:48;;;;;;;140.93;58.75;;;-2.60;92.50;-3.10;99494.00;;;;5034074;28;83136;-58
2021/12/13 07:59:30;;;;;;;133.60;56.55;;;-2.60;92.30;-3.10;99500.00;;;;5021668;28;83119;-54
2021/12/13 08:02:22;;;;;;;129.32;56.10;;;-2.60;92.30;-3.00;99496.00;;;;5021055;28;83615;-56
2021/12/13 08:05:13;;;;;;;114.93;53.33;;;-2.50;92.50;-3.00;99484.00;;;;5022453;28;83135;-54
2021/12/13 08:07:53;;;;;;;111.82;53.03;;;-2.50;92.30;-3.00;99491.00;;;;5022499;28;82717;-58
2021/12/13 08:10:40;;;;;;;125.25;53.97;;;-2.50;92.20;-2.90;99500.00;;;;5022414;28;83475;-55
2021/12/13 08:13:15;;;;;;;113.82;52.78;;;-2.50;92.10;-2.90;99502.00;;;;5042287;27;83286;-54
2021/12/13 08:16:04;;;;;;;121.15;55.67;;;-2.40;92.20;-2.90;99507.00;;;;5038428;28;82971;-56
2021/12/13 08:18:35;;;;;;;110.50;53.38;;;-2.40;91.90;-2.90;99491.00;;;;5021838;28;83208;-57
2021/12/13 08:21:22;;;;;;;112.55;53.58;;;-2.40;91.90;-2.90;99498.00;;;;5022386;28;82988;-58
2021/12/13 08:23:57;;;;;;;112.25;52.58;;;-2.40;91.80;-2.80;99497.00;;;;5008752;28;84740;-59
2021/12/13 08:26:34;;;;;;;118.10;55.50;;;-2.40;91.80;-2.80;99499.00;;;;5021407;28;82967;-55
2021/12/13 08:29:18;;;;;;;101.65;51.25;;;-2.30;91.90;-2.70;99493.00;;;;5022077;28;82646;-56
2021/12/13 08:31:51;;;;;;;107.75;53.72;;;-2.30;92.00;-2.70;99486.00;;;;5021699;28;83548;-55
2021/12/13 08:34:30;;;;;;;106.13;52.65;;;-2.30;91.70;-2.70;99486.00;;;;5020384;28;84382;-56
2021/12/13 08:36:58;;;;;;;104.70;51.63;;;-2.20;91.70;-2.70;99496.00;;;;5020474;28;83241;-57
2021/12/13 08:39:31;;;;;;;110.05;52.75;;;-2.30;91.30;-2.70;99497.00;;;;5020510;28;83296;-57
2021/12/13 08:42:11;;;;;;;117.32;55.92;;;-2.20;91.50;-2.60;99499.00;;;;5020622;28;85479;-58
2021/12/13 08:45:06;;;;;;;116.95;56.60;;;-2.20;91.50;-2.60;99502.00;;;;5003819;28;85984;-55
2021/12/13 08:47:51;;;;;;;103.18;52.13;;;-2.20;91.30;-2.70;99496.00;;;;5008517;28;83073;-59
2021/12/13 08:50:29;;;;;;;111.97;54.40;;;-2.20;91.30;-2.70;99499.00;;;;5020089;28;83063;-57
2021/12/13 08:53:04;;;;;;;116.03;53.88;;;-2.30;91.10;-2.80;99490.00;;;;5021771;28;83021;-54
2021/12/13 08:55:37;;;;;;;103.25;52.20;;;-2.30;91.30;-2.70;99493.00;;;;5007169;28;83388;-56
2021/12/13 08:58:12;;;;;;;103.43;53.45;;;-2.30;91.30;-2.70;99487.00;;;;5040741;28;83066;-58
2021/12/13 09:01:06;;;;;;;111.80;55.92;;;-2.30;91.70;-2.70;99485.00;;;;5041530;28;83697;-57
2021/12/13 09:03:51;;;;;;;109.15;54.58;;;-2.30;91.10;-2.70;99479.00;;;;5041827;27;82976;-55
2021/12/13 09:06:17;;;;;;;105.10;52.15;;;-2.30;91.20;-2.70;99476.00;;;;5041847;28;83395;-56
2021/12/13 09:08:49;;;;;;;100.38;55.08;;;-2.20;91.20;-2.60;99470.00;;;;5033151;28;83079;-55
2021/12/13 09:11:27;;;;;;;113.28;55.28;;;-2.20;91.40;-2.60;99467.00;;;;5024735;28;82657;-56
2021/12/13 09:14:01;;;;;;;95.63;51.20;;;-2.10;91.30;-2.50;99460.00;;;;5016872;28;83084;-55
2021/12/13 09:16:45;;;;;;;92.20;50.35;;;-2.10;91.20;-2.50;99467.00;;;;5031726;28;83525;-56
2021/12/13 09:19:32;;;;;;;89.30;49.20;;;-2.00;91.10;-2.40;99467.00;;;;5013764;28;85671;-61
2021/12/13 09:22:12;;;;;;;92.63;50.55;;;-2.00;91.00;-2.40;99454.00;;;;4982508;28;83281;-58
2021/12/13 09:25:09;;;;;;;90.47;51.08;;;-1.90;91.30;-2.40;99456.00;;;;5031275;28;84705;-56
2021/12/13 09:27:49;;;;;;;96.45;52.63;;;-1.90;90.70;-2.40;99435.00;;;;5010798;28;83210;-54
2021/12/13 09:30:36;;;;;;;99.70;52.63;;;-1.90;90.70;-2.40;99451.00;;;;5001172;28;83050;-57
2021/12/13 09:33:24;;;;;;;91.78;51.13;;;-2.00;90.70;-2.40;99430.00;;;;5000921;28;83291;-55
2021/12/13 09:36:00;;;;;;;91.32;49.55;;;-2.00;90.90;-2.40;99437.00;;;;5000649;28;82701;-56
2021/12/13 09:38:41;;;;;;;90.45;51.67;;;-1.90;90.70;-2.40;99431.00;;;;5000721;28;83327;-57
2021/12/13 09:41:40;;;;;;;88.03;51.63;;;-1.90;90.80;-2.30;99424.00;;;;5019471;28;82951;-56
2021/12/13 09:44:10;;;;;;;87.75;52.85;;;-1.90;90.80;-2.20;99428.00;;;;5019825;28;82708;-54
2021/12/13 09:46:54;;;;;;;98.80;54.83;;;-1.80;91.20;-2.30;99421.00;;;;5020712;28;82918;-55
2021/12/13 09:49:41;;;;;;;97.28;52.10;;;-1.80;90.70;-2.30;99440.00;;;;5001134;28;83837;-58
2021/12/13 09:52:23;;;;;;;90.32;50.10;;;-1.90;90.50;-2.30;99435.00;;;;5000418;28;83125;-58
2021/12/13 09:54:58;;;;;;;94.85;52.28;;;-1.80;90.50;-2.20;99420.00;;;;5000345;28;83055;-57
2021/12/13 09:57:51;;;;;;;89.60;51.28;;;-1.90;90.60;-2.30;99429.00;;;;5037983;28;83518;-55
2021/12/13 10:00:40;;;;;;;94.13;53.03;;;-1.90;90.50;-2.20;99428.00;;;;5041217;28;83303;-52
2021/12/13 10:03:23;;;;;;;90.35;50.83;;;-1.80;90.70;-2.20;99429.00;;;;5009848;28;83451;-56
2021/12/13 10:05:55;;;;;;;90.07;51.20;;;-1.80;90.50;-2.20;99421.00;;;;5014459;28;84876;-57
2021/12/13 10:08:30;;;;;;;87.30;50.80;;;-1.80;90.50;-2.20;99426.00;;;;4999430;28;82818;-58
2021/12/13 10:11:15;;;;;;;87.63;52.20;;;-1.80;90.60;-2.20;99434.00;;;;5010827;28;83969;-58
2021/12/13 10:13:43;;;;;;;83.13;50.97;;;-1.70;90.40;-2.10;99441.00;;;;4997092;28;83035;-56
2021/12/13 10:16:26;;;;;;;81.13;48.22;;;-1.70;90.30;-2.20;99433.00;;;;5027888;28;82993;-56
2021/12/13 10:18:53;;;;;;;87.07;49.67;;;-1.70;90.30;-2.20;99434.00;;;;5020728;27;83568;-57
2021/12/13 10:21:35;;;;;;;86.93;50.97;;;-1.80;90.10;-2.20;99426.00;;;;5020474;28;83735;-59
2021/12/13 10:24:09;;;;;;;86.43;52.47;;;-1.80;90.30;-2.40;99430.00;;;;5019873;28;83396;-59
2021/12/13 10:26:41;;;;;;;89.20;51.10;;;-1.90;90.20;-2.40;99419.00;;;;5020391;28;82590;-58
2021/12/13 10:29:11;;;;;;;89.28;54.30;;;-2.00;90.30;-2.40;99431.00;;;;5019936;28;83317;-57
2021/12/13 10:31:48;;;;;;;87.35;51.22;;;-1.90;90.60;-2.30;99427.00;;;;5020341;28;83321;-58
2021/12/13 10:34:21;;;;;;;81.38;50.00;;;-1.90;90.70;-2.30;99428.00;;;;5019222;28;83158;-58
2021/12/13 10:37:05;;;;;;;83.45;49.33;;;-1.90;90.50;-2.30;99422.00;;;;5019829;28;82789;-57
2021/12/13 10:39:41;;;;;;;89.13;51.28;;;-1.90;90.60;-2.20;99423.00;;;;5020083;28;82986;-58
2021/12/13 10:42:14;;;;;;;85.03;49.03;;;-1.80;90.90;-2.20;99426.00;;;;5019860;28;84406;-60
2021/12/13 10:44:45;;;;;;;78.30;49.65;;;-1.80;90.50;-2.20;99422.00;;;;5019653;28;83078;-58
2021/12/13 10:47:27;;;;;;;78.88;48.53;;;-1.80;90.50;-2.20;99418.00;;;;5020172;28;82973;-60
2021/12/13 10:49:54;;;;;;;75.18;48.45;;;-1.80;90.50;-2.20;99424.00;;;;5020091;28;82970;-55
2021/12/13 10:52:35;;;;;;;75.75;47.53;;;-1.70;90.60;-2.20;99422.00;;;;5020288;28;82946;-53
2021/12/13 10:55:13;;;;;;;78.70;48.60;;;-1.70;90.50;-2.20;99420.00;;;;5023567;28;83020;-54
2021/12/13 10:57:48;;;;;;;77.20;47.58;;;-1.70;90.50;-2.10;99429.00;;;;5002808;28;82943;-56
2021/12/13 11:00:35;;;;;;;78.80;49.53;;;-1.70;90.50;-2.10;99436.00;;;;5011459;28;82675;-54
2021/12/13 11:03:14;;;;;;;79.35;48.70;;;-1.70;90.50;-2.10;99436.00;;;;5010919;28;83487;-54
2021/12/13 11:05:41;;;;;;;75.38;47.95;;;-1.60;90.40;-2.10;99441.00;;;;5006226;28;83018;-55
2021/12/13 11:08:10;;;;;;;73.57;47.90;;;-1.70;90.40;-2.00;99434.00;;;;5008671;28;84424;-58
2021/12/13 11:10:50;;;;;;;76.18;48.45;;;-1.60;90.80;-2.10;99450.00;;;;5003771;28;85167;-56
2021/12/13 11:13:18;;;;;;;76.80;47.72;;;-1.60;90.50;-2.10;99432.00;;;;5022763;28;84308;-59
2021/12/13 11:15:50;;;;;;;75.85;47.05;;;-1.70;90.40;-2.10;99428.00;;;;5020130;28;83014;-58
2021/12/13 11:18:27;;;;;;;75.78;48.33;;;-1.70;90.40;-2.10;99421.00;;;;5023372;28;82612;-56
2021/12/13 11:20:59;;;;;;;83.57;49.40;;;-1.70;90.50;-2.10;99429.00;;;;5023105;28;82780;-60
2021/12/13 11:23:26;;;;;;;;;;;-1.70;90.70;-2.10;99429.00;;;;5023763;28;84104;-55
2021/12/13 11:26:02;;;;;;;75.22;48.38;;;-1.70;90.70;-2.10;99428.00;;;;5023535;28;83777;-57
2021/12/13 11:28:31;;;;;;;76.82;49.28;;;-1.70;90.70;-2.10;99439.00;;;;5022180;28;82945;-58
2021/12/13 11:31:04;;;;;;;79.45;49.15;;;-1.70;90.80;-2.10;99435.00;;;;5022868;28;83028;-57
2021/12/13 11:33:41;;;;;;;72.65;47.28;;;-1.70;90.70;-2.10;99432.00;;;;5021089;28;83217;-54
2021/12/13 11:36:07;;;;;;;77.93;49.40;;;-1.70;90.80;-2.10;99424.00;;;;5022632;28;83125;-60
2021/12/13 11:39:29;;;;;;;71.68;46.28;;;-1.70;90.70;-2.10;99437.00;;;;5016884;28;83094;-61